Steve Richoux — WDC2820 — position and weather

sailwx.info

Track history (hours):
 
Tides and Currents Weather Stations Pressure Air Temp Water Temp Dewpoint Dewpoint Depression Visibility Wind Speed Wind Dir Waves Ship Positions

Steve Richoux

Owner: Marquette Transportation Company Gulf-Inland, LLC, Jefferson, LA. More information available from US FCC via Universal Licensing System and Coast Guard Vessel Documentation Center.

Last reported at 2018-Jan-18 13:18 UTC. Time now 2018-Jan-24 04:08 UTC.
Position N 29°33' W 090°27'.

Length 21 m; draft 3.4 m.

Type: Tow > 200 m length. MMSI: 366998110.

Date/timePositionNaut miles runAvg speedWind from/ knotsBaromVisibWave heightAir tempDewpointWater temp
2018-Jan-18 13:18N 29°33' W 090°27'2 5.4
2018-Jan-18 13:00N 29°34' W 090°28'3 5.4
2018-Jan-18 12:30N 29°34' W 090°31'3 5.5
2018-Jan-18 12:00N 29°34' W 090°35'2 5.0
2018-Jan-18 11:30N 29°35' W 090°37'3 5.7
2018-Jan-18 11:00N 29°36' W 090°40'2 4.1
2018-Jan-18 10:30N 29°36' W 090°43'2 4.9
2018-Jan-18 10:00N 29°34' W 090°44'2 4.5
2018-Jan-18 09:30N 29°32' W 090°46'3 5.0
2018-Jan-18 09:00N 29°32' W 090°49'3 5.5
2018-Jan-18 08:29N 29°32' W 090°52'3 5.7
2018-Jan-18 08:00N 29°33' W 090°55'  
2018-Jan-12 05:39N 29°51' W 092°22'1 3.2
2018-Jan-12 05:23N 29°51' W 092°21'1 2.6
2018-Jan-12 05:00N 29°50' W 092°20'1 3.0
2018-Jan-12 04:30N 29°50' W 092°18'1 2.1
2018-Jan-12 04:00N 29°49' W 092°17'0 0.9
2018-Jan-12 03:30N 29°49' W 092°17'2 3.4
2018-Jan-12 03:00N 29°48' W 092°15'2 3.2
2018-Jan-12 02:30N 29°48' W 092°14'1 2.3
2018-Jan-12 02:00N 29°47' W 092°12'1 1.4
2018-Jan-12 01:30N 29°47' W 092°12'0 0.6
2018-Jan-12 01:00N 29°47' W 092°11'0 0.0
2018-Jan-12 00:30N 29°47' W 092°11'0 0.2
2018-Jan-12 00:00N 29°47' W 092°11'1 1.3
2018-Jan-11 23:30N 29°47' W 092°10'2 4.2
2018-Jan-11 23:00N 29°47' W 092°08'2 3.7
2018-Jan-11 22:30N 29°48' W 092°06'2 3.7
2018-Jan-11 22:00N 29°48' W 092°04'2 3.8
2018-Jan-11 21:29N 29°49' W 092°02'2 4.3
2018-Jan-11 21:00N 29°50' W 091°60'2 3.9
2018-Jan-11 20:30N 29°50' W 091°58'55 1.3
2018-Jan-10 00:32N 29°34' W 090°57'0 4.3
2018-Jan-10 00:30N 29°34' W 090°57'2 4.5
2018-Jan-10 00:00N 29°33' W 090°55'3 4.3
2018-Jan-09 23:24N 29°32' W 090°52'2 4.1
2018-Jan-09 23:00N 29°32' W 090°50'2 4.2
2018-Jan-09 22:30N 29°32' W 090°48'2 3.7
2018-Jan-09 22:00N 29°32' W 090°46'2 3.7
2018-Jan-09 21:30N 29°34' W 090°44'1 2.8
2018-Jan-09 21:00N 29°35' W 090°43'2 3.6
2018-Jan-09 20:30N 29°37' W 090°42'1 1.7
2018-Jan-09 20:00N 29°37' W 090°42'1 1.4
2018-Jan-09 19:30N 29°36' W 090°41'2 3.4
2018-Jan-09 19:00N 29°36' W 090°39'2 3.9
2018-Jan-09 18:30N 29°35' W 090°37'2 3.7
2018-Jan-09 18:00N 29°35' W 090°35'2 3.9
2018-Jan-09 17:30N 29°34' W 090°33'2 3.9
2018-Jan-09 17:00N 29°34' W 090°31'2 4.0
2018-Jan-09 16:30N 29°34' W 090°28'2 3.9
2018-Jan-09 16:00N 29°33' W 090°26'  
Track history (hours):
 
Tides and Currents Weather Stations Pressure Air Temp Water Temp Dewpoint Dewpoint Depression Visibility Wind Speed Wind Dir Waves Ship Positions

Steve Richoux

Owner: Marquette Transportation Company Gulf-Inland, LLC, Jefferson, LA. More information available from US FCC via Universal Licensing System and Coast Guard Vessel Documentation Center.

Last reported at 2018-Jan-18 13:18 UTC. Time now 2018-Jan-24 04:08 UTC.
Position N 29°33' W 090°27'.

Length 21 m; draft 3.4 m.

Type: Tow > 200 m length. MMSI: 366998110.

Date/timePositionNaut miles runAvg speedWind from/ knotsBaromVisibWave heightAir tempDewpointWater temp
2018-Jan-18 13:18N 29°33' W 090°27'2 5.4
2018-Jan-18 13:00N 29°34' W 090°28'3 5.4
2018-Jan-18 12:30N 29°34' W 090°31'3 5.5
2018-Jan-18 12:00N 29°34' W 090°35'2 5.0
2018-Jan-18 11:30N 29°35' W 090°37'3 5.7
2018-Jan-18 11:00N 29°36' W 090°40'2 4.1
2018-Jan-18 10:30N 29°36' W 090°43'2 4.9
2018-Jan-18 10:00N 29°34' W 090°44'2 4.5
2018-Jan-18 09:30N 29°32' W 090°46'3 5.0
2018-Jan-18 09:00N 29°32' W 090°49'3 5.5
2018-Jan-18 08:29N 29°32' W 090°52'3 5.7
2018-Jan-18 08:00N 29°33' W 090°55'  
2018-Jan-12 05:39N 29°51' W 092°22'1 3.2
2018-Jan-12 05:23N 29°51' W 092°21'1 2.6
2018-Jan-12 05:00N 29°50' W 092°20'1 3.0
2018-Jan-12 04:30N 29°50' W 092°18'1 2.1
2018-Jan-12 04:00N 29°49' W 092°17'0 0.9
2018-Jan-12 03:30N 29°49' W 092°17'2 3.4
2018-Jan-12 03:00N 29°48' W 092°15'2 3.2
2018-Jan-12 02:30N 29°48' W 092°14'1 2.3
2018-Jan-12 02:00N 29°47' W 092°12'1 1.4
2018-Jan-12 01:30N 29°47' W 092°12'0 0.6
2018-Jan-12 01:00N 29°47' W 092°11'0 0.0
2018-Jan-12 00:30N 29°47' W 092°11'0 0.2
2018-Jan-12 00:00N 29°47' W 092°11'1 1.3
2018-Jan-11 23:30N 29°47' W 092°10'2 4.2
2018-Jan-11 23:00N 29°47' W 092°08'2 3.7
2018-Jan-11 22:30N 29°48' W 092°06'2 3.7
2018-Jan-11 22:00N 29°48' W 092°04'2 3.8
2018-Jan-11 21:29N 29°49' W 092°02'2 4.3
2018-Jan-11 21:00N 29°50' W 091°60'2 3.9
2018-Jan-11 20:30N 29°50' W 091°58'55 1.3
2018-Jan-10 00:32N 29°34' W 090°57'0 4.3
2018-Jan-10 00:30N 29°34' W 090°57'2 4.5
2018-Jan-10 00:00N 29°33' W 090°55'3 4.3
2018-Jan-09 23:24N 29°32' W 090°52'2 4.1
2018-Jan-09 23:00N 29°32' W 090°50'2 4.2
2018-Jan-09 22:30N 29°32' W 090°48'2 3.7
2018-Jan-09 22:00N 29°32' W 090°46'2 3.7
2018-Jan-09 21:30N 29°34' W 090°44'1 2.8
2018-Jan-09 21:00N 29°35' W 090°43'2 3.6
2018-Jan-09 20:30N 29°37' W 090°42'1 1.7
2018-Jan-09 20:00N 29°37' W 090°42'1 1.4
2018-Jan-09 19:30N 29°36' W 090°41'2 3.4
2018-Jan-09 19:00N 29°36' W 090°39'2 3.9
2018-Jan-09 18:30N 29°35' W 090°37'2 3.7
2018-Jan-09 18:00N 29°35' W 090°35'2 3.9
2018-Jan-09 17:30N 29°34' W 090°33'2 3.9
2018-Jan-09 17:00N 29°34' W 090°31'2 4.0
2018-Jan-09 16:30N 29°34' W 090°28'2 3.9
2018-Jan-09 16:00N 29°33' W 090°26'  

Dump ship's entire track history